sensor_id;sensor_type;location;lat;lon;timestamp;temperature;humidity
73360;DHT22;63092;43.582;19.528;2023-01-16T00:01:15;4.10;99.90
73360;DHT22;63092;43.582;19.528;2023-01-16T00:03:41;4.20;99.90
73360;DHT22;63092;43.582;19.528;2023-01-16T00:06:07;4.20;99.90
73360;DHT22;63092;43.582;19.528;2023-01-16T00:08:33;4.20;99.90
73360;DHT22;63092;43.582;19.528;2023-01-16T00:10:59;4.20;99.90
73360;DHT22;63092;43.582;19.528;2023-01-16T00:13:25;4.10;99.90
73360;DHT22;63092;43.582;19.528;2023-01-16T00:15:51;4.20;99.90
73360;DHT22;63092;43.582;19.528;2023-01-16T00:18:17;4.20;99.90
73360;DHT22;63092;43.582;19.528;2023-01-16T00:20:47;4.20;99.90
73360;DHT22;63092;43.582;19.528;2023-01-16T00:23:14;4.30;99.90
73360;DHT22;63092;43.582;19.528;2023-01-16T00:25:41;4.30;99.90
73360;DHT22;63092;43.582;19.528;2023-01-16T00:28:08;4.20;99.90
73360;DHT22;63092;43.582;19.528;2023-01-16T00:30:34;4.20;99.90
73360;DHT22;63092;43.582;19.528;2023-01-16T00:33:00;4.20;99.90
73360;DHT22;63092;43.582;19.528;2023-01-16T00:35:27;4.20;99.90
73360;DHT22;63092;43.582;19.528;2023-01-16T00:37:53;4.20;99.90
73360;DHT22;63092;43.582;19.528;2023-01-16T00:40:19;4.30;99.90
73360;DHT22;63092;43.582;19.528;2023-01-16T00:42:44;4.30;99.90
73360;DHT22;63092;43.582;19.528;2023-01-16T00:45:10;4.30;99.90
73360;DHT22;63092;43.582;19.528;2023-01-16T00:47:36;4.30;99.90
73360;DHT22;63092;43.582;19.528;2023-01-16T00:50:03;4.10;99.90
73360;DHT22;63092;43.582;19.528;2023-01-16T00:52:28;4.20;99.90
73360;DHT22;63092;43.582;19.528;2023-01-16T00:54:54;4.10;99.90
73360;DHT22;63092;43.582;19.528;2023-01-16T00:57:20;4.10;99.90
73360;DHT22;63092;43.582;19.528;2023-01-16T00:59:46;4.20;99.90
73360;DHT22;63092;43.582;19.528;2023-01-16T01:02:11;4.20;99.90
73360;DHT22;63092;43.582;19.528;2023-01-16T01:04:37;4.20;99.90
73360;DHT22;63092;43.582;19.528;2023-01-16T01:07:03;4.20;99.90
73360;DHT22;63092;43.582;19.528;2023-01-16T01:09:29;4.20;99.90
73360;DHT22;63092;43.582;19.528;2023-01-16T01:11:59;4.20;99.90
73360;DHT22;63092;43.582;19.528;2023-01-16T01:14:26;4.20;99.90
73360;DHT22;63092;43.582;19.528;2023-01-16T01:16:51;4.20;99.90
73360;DHT22;63092;43.582;19.528;2023-01-16T01:19:17;4.20;99.90
73360;DHT22;63092;43.582;19.528;2023-01-16T01:21:43;4.20;99.90
73360;DHT22;63092;43.582;19.528;2023-01-16T01:24:09;4.30;99.90
73360;DHT22;63092;43.582;19.528;2023-01-16T01:26:35;4.20;99.90
73360;DHT22;63092;43.582;19.528;2023-01-16T01:29:01;4.10;99.90
73360;DHT22;63092;43.582;19.528;2023-01-16T01:31:27;4.20;99.90
73360;DHT22;63092;43.582;19.528;2023-01-16T01:33:52;4.20;99.90
73360;DHT22;63092;43.582;19.528;2023-01-16T01:36:18;4.20;99.90
73360;DHT22;63092;43.582;19.528;2023-01-16T01:38:44;4.20;99.90
73360;DHT22;63092;43.582;19.528;2023-01-16T01:41:13;4.20;99.90
73360;DHT22;63092;43.582;19.528;2023-01-16T01:43:59;4.20;99.90
73360;DHT22;63092;43.582;19.528;2023-01-16T01:49:24;4.20;99.90
73360;DHT22;63092;43.582;19.528;2023-01-16T01:51:56;4.20;99.90
73360;DHT22;63092;43.582;19.528;2023-01-16T01:54:32;4.20;99.90
73360;DHT22;63092;43.582;19.528;2023-01-16T01:57:06;4.20;99.90
73360;DHT22;63092;43.582;19.528;2023-01-16T01:59:36;4.20;99.90
73360;DHT22;63092;43.582;19.528;2023-01-16T02:02:05;4.20;99.90
73360;DHT22;63092;43.582;19.528;2023-01-16T02:04:36;4.10;99.90
73360;DHT22;63092;43.582;19.528;2023-01-16T02:07:06;4.10;99.90
73360;DHT22;63092;43.582;19.528;2023-01-16T02:09:34;4.10;99.90
73360;DHT22;63092;43.582;19.528;2023-01-16T02:12:10;4.10;99.90
73360;DHT22;63092;43.582;19.528;2023-01-16T02:14:38;4.00;99.90
73360;DHT22;63092;43.582;19.528;2023-01-16T02:17:11;4.00;99.90
73360;DHT22;63092;43.582;19.528;2023-01-16T02:20:21;4.00;99.90
73360;DHT22;63092;43.582;19.528;2023-01-16T02:28:59;4.00;99.90
73360;DHT22;63092;43.582;19.528;2023-01-16T02:31:46;3.80;99.90
73360;DHT22;63092;43.582;19.528;2023-01-16T02:42:41;3.80;99.90
73360;DHT22;63092;43.582;19.528;2023-01-16T02:48:02;3.90;99.90
73360;DHT22;63092;43.582;19.528;2023-01-16T02:50:44;3.80;99.90
73360;DHT22;63092;43.582;19.528;2023-01-16T02:53:19;3.90;99.90
73360;DHT22;63092;43.582;19.528;2023-01-16T02:55:49;3.90;99.90
73360;DHT22;63092;43.582;19.528;2023-01-16T02:58:18;4.00;99.90
73360;DHT22;63092;43.582;19.528;2023-01-16T03:01:10;3.90;99.90
73360;DHT22;63092;43.582;19.528;2023-01-16T03:09:23;3.80;99.90
73360;DHT22;63092;43.582;19.528;2023-01-16T03:15:11;3.70;99.90
73360;DHT22;63092;43.582;19.528;2023-01-16T03:17:59;3.70;99.90
73360;DHT22;63092;43.582;19.528;2023-01-16T03:26:14;3.70;99.90
73360;DHT22;63092;43.582;19.528;2023-01-16T03:28:58;3.70;99.90
73360;DHT22;63092;43.582;19.528;2023-01-16T03:34:48;3.60;99.90
73360;DHT22;63092;43.582;19.528;2023-01-16T03:37:32;3.70;99.90
73360;DHT22;63092;43.582;19.528;2023-01-16T03:40:08;3.60;99.90
73360;DHT22;63092;43.582;19.528;2023-01-16T03:42:39;3.60;99.90
73360;DHT22;63092;43.582;19.528;2023-01-16T03:45:16;3.60;99.90
73360;DHT22;63092;43.582;19.528;2023-01-16T03:47:50;3.70;99.90
73360;DHT22;63092;43.582;19.528;2023-01-16T03:50:18;3.70;99.90
73360;DHT22;63092;43.582;19.528;2023-01-16T03:52:48;3.70;99.90
73360;DHT22;63092;43.582;19.528;2023-01-16T03:55:21;3.80;99.90
73360;DHT22;63092;43.582;19.528;2023-01-16T03:57:59;3.70;99.90
73360;DHT22;63092;43.582;19.528;2023-01-16T04:00:43;3.70;99.90
73360;DHT22;63092;43.582;19.528;2023-01-16T04:03:16;3.70;99.90
73360;DHT22;63092;43.582;19.528;2023-01-16T04:05:55;3.80;99.90
73360;DHT22;63092;43.582;19.528;2023-01-16T04:08:28;3.70;99.90
73360;DHT22;63092;43.582;19.528;2023-01-16T04:10:57;3.70;99.90
73360;DHT22;63092;43.582;19.528;2023-01-16T04:13:28;3.80;99.90
73360;DHT22;63092;43.582;19.528;2023-01-16T04:15:56;3.80;99.90
73360;DHT22;63092;43.582;19.528;2023-01-16T04:18:26;3.80;99.90
73360;DHT22;63092;43.582;19.528;2023-01-16T04:20:53;3.70;99.90
73360;DHT22;63092;43.582;19.528;2023-01-16T04:23:19;3.70;99.90
73360;DHT22;63092;43.582;19.528;2023-01-16T04:25:45;3.70;99.90
73360;DHT22;63092;43.582;19.528;2023-01-16T04:28:11;3.60;99.90
73360;DHT22;63092;43.582;19.528;2023-01-16T04:30:36;3.40;99.90
73360;DHT22;63092;43.582;19.528;2023-01-16T04:33:03;3.30;99.90
73360;DHT22;63092;43.582;19.528;2023-01-16T04:35:29;3.20;99.90
73360;DHT22;63092;43.582;19.528;2023-01-16T04:37:55;3.00;99.90
73360;DHT22;63092;43.582;19.528;2023-01-16T04:40:21;2.80;99.90
73360;DHT22;63092;43.582;19.528;2023-01-16T04:42:47;2.90;99.90
73360;DHT22;63092;43.582;19.528;2023-01-16T04:45:13;2.80;99.90
73360;DHT22;63092;43.582;19.528;2023-01-16T04:47:38;2.80;99.90
73360;DHT22;63092;43.582;19.528;2023-01-16T04:50:04;2.80;99.90
73360;DHT22;63092;43.582;19.528;2023-01-16T04:52:30;2.80;99.90
73360;DHT22;63092;43.582;19.528;2023-01-16T04:54:56;3.00;99.90
73360;DHT22;63092;43.582;19.528;2023-01-16T04:57:22;3.00;99.90
73360;DHT22;63092;43.582;19.528;2023-01-16T04:59:48;3.00;99.90
73360;DHT22;63092;43.582;19.528;2023-01-16T05:02:13;3.20;99.90
73360;DHT22;63092;43.582;19.528;2023-01-16T05:04:39;3.10;99.90
73360;DHT22;63092;43.582;19.528;2023-01-16T05:07:05;3.20;99.90
73360;DHT22;63092;43.582;19.528;2023-01-16T05:09:30;3.00;99.90
73360;DHT22;63092;43.582;19.528;2023-01-16T05:11:56;2.90;99.90
73360;DHT22;63092;43.582;19.528;2023-01-16T05:14:22;2.90;99.90
73360;DHT22;63092;43.582;19.528;2023-01-16T05:16:48;2.90;99.90
73360;DHT22;63092;43.582;19.528;2023-01-16T05:19:13;3.00;99.90
73360;DHT22;63092;43.582;19.528;2023-01-16T05:21:39;3.00;99.90
73360;DHT22;63092;43.582;19.528;2023-01-16T05:24:05;3.10;99.90
73360;DHT22;63092;43.582;19.528;2023-01-16T05:26:31;3.20;99.90
73360;DHT22;63092;43.582;19.528;2023-01-16T05:28:57;3.30;99.90
73360;DHT22;63092;43.582;19.528;2023-01-16T05:31:24;3.20;99.90
73360;DHT22;63092;43.582;19.528;2023-01-16T05:33:50;3.30;99.90
73360;DHT22;63092;43.582;19.528;2023-01-16T05:36:16;3.30;99.90
73360;DHT22;63092;43.582;19.528;2023-01-16T05:38:41;3.30;99.90
73360;DHT22;63092;43.582;19.528;2023-01-16T05:41:07;3.40;99.90
73360;DHT22;63092;43.582;19.528;2023-01-16T05:43:33;3.40;99.90
73360;DHT22;63092;43.582;19.528;2023-01-16T05:45:58;3.30;99.90
73360;DHT22;63092;43.582;19.528;2023-01-16T05:48:24;3.40;99.90
73360;DHT22;63092;43.582;19.528;2023-01-16T05:50:50;3.30;99.90
73360;DHT22;63092;43.582;19.528;2023-01-16T05:53:16;3.40;99.90
73360;DHT22;63092;43.582;19.528;2023-01-16T05:55:44;3.20;99.90
73360;DHT22;63092;43.582;19.528;2023-01-16T05:58:11;3.20;99.90
73360;DHT22;63092;43.582;19.528;2023-01-16T06:00:40;3.20;99.90
73360;DHT22;63092;43.582;19.528;2023-01-16T06:03:07;3.20;99.90
73360;DHT22;63092;43.582;19.528;2023-01-16T06:05:33;3.20;99.90
73360;DHT22;63092;43.582;19.528;2023-01-16T06:07:59;3.30;99.90
73360;DHT22;63092;43.582;19.528;2023-01-16T06:10:25;3.10;99.90
73360;DHT22;63092;43.582;19.528;2023-01-16T06:12:52;3.20;99.90
73360;DHT22;63092;43.582;19.528;2023-01-16T06:15:18;3.20;99.90
73360;DHT22;63092;43.582;19.528;2023-01-16T06:17:44;3.40;99.90
73360;DHT22;63092;43.582;19.528;2023-01-16T06:20:11;3.40;99.90
73360;DHT22;63092;43.582;19.528;2023-01-16T06:22:36;3.30;99.90
73360;DHT22;63092;43.582;19.528;2023-01-16T06:25:02;3.30;99.90
73360;DHT22;63092;43.582;19.528;2023-01-16T06:27:28;3.40;99.90
73360;DHT22;63092;43.582;19.528;2023-01-16T06:29:54;3.40;99.90
73360;DHT22;63092;43.582;19.528;2023-01-16T06:32:20;3.40;99.90
73360;DHT22;63092;43.582;19.528;2023-01-16T06:34:46;3.50;99.90
73360;DHT22;63092;43.582;19.528;2023-01-16T06:37:11;3.50;99.90
73360;DHT22;63092;43.582;19.528;2023-01-16T06:39:37;3.60;99.90
73360;DHT22;63092;43.582;19.528;2023-01-16T06:42:03;3.60;99.90
73360;DHT22;63092;43.582;19.528;2023-01-16T06:44:31;3.60;99.90
73360;DHT22;63092;43.582;19.528;2023-01-16T06:46:57;3.60;99.90
73360;DHT22;63092;43.582;19.528;2023-01-16T06:49:24;3.50;99.90
73360;DHT22;63092;43.582;19.528;2023-01-16T06:51:49;3.50;99.90
73360;DHT22;63092;43.582;19.528;2023-01-16T06:54:15;3.50;99.90
73360;DHT22;63092;43.582;19.528;2023-01-16T06:56:41;3.50;99.90
73360;DHT22;63092;43.582;19.528;2023-01-16T06:59:06;3.50;99.90
73360;DHT22;63092;43.582;19.528;2023-01-16T07:01:32;3.40;99.90
73360;DHT22;63092;43.582;19.528;2023-01-16T07:03:58;3.40;99.90
73360;DHT22;63092;43.582;19.528;2023-01-16T07:06:24;3.30;99.90
73360;DHT22;63092;43.582;19.528;2023-01-16T07:08:50;3.30;99.90
73360;DHT22;63092;43.582;19.528;2023-01-16T07:11:16;3.20;99.90
73360;DHT22;63092;43.582;19.528;2023-01-16T07:13:42;3.30;99.90
73360;DHT22;63092;43.582;19.528;2023-01-16T07:16:10;3.20;99.90
73360;DHT22;63092;43.582;19.528;2023-01-16T07:18:55;3.20;99.90
73360;DHT22;63092;43.582;19.528;2023-01-16T07:21:43;3.10;99.90
73360;DHT22;63092;43.582;19.528;2023-01-16T07:24:29;3.20;99.90
73360;DHT22;63092;43.582;19.528;2023-01-16T07:26:59;3.20;99.90
73360;DHT22;63092;43.582;19.528;2023-01-16T07:29:28;3.30;99.90
73360;DHT22;63092;43.582;19.528;2023-01-16T07:31:55;3.20;99.90
73360;DHT22;63092;43.582;19.528;2023-01-16T07:34:21;3.20;99.90
73360;DHT22;63092;43.582;19.528;2023-01-16T07:36:48;3.20;99.90
73360;DHT22;63092;43.582;19.528;2023-01-16T07:39:13;3.20;99.90
73360;DHT22;63092;43.582;19.528;2023-01-16T07:41:39;3.10;99.90
73360;DHT22;63092;43.582;19.528;2023-01-16T07:44:05;3.10;99.90
73360;DHT22;63092;43.582;19.528;2023-01-16T07:46:31;3.00;99.90
73360;DHT22;63092;43.582;19.528;2023-01-16T07:48:57;3.10;99.90
73360;DHT22;63092;43.582;19.528;2023-01-16T07:51:23;3.00;99.90
73360;DHT22;63092;43.582;19.528;2023-01-16T07:53:49;2.90;99.90
73360;DHT22;63092;43.582;19.528;2023-01-16T07:56:15;2.90;99.90
73360;DHT22;63092;43.582;19.528;2023-01-16T07:58:41;2.90;99.90
73360;DHT22;63092;43.582;19.528;2023-01-16T08:01:09;2.80;99.90
73360;DHT22;63092;43.582;19.528;2023-01-16T08:03:35;2.70;99.90
73360;DHT22;63092;43.582;19.528;2023-01-16T08:06:01;2.60;99.90
73360;DHT22;63092;43.582;19.528;2023-01-16T08:08:28;2.60;99.90
73360;DHT22;63092;43.582;19.528;2023-01-16T08:10:55;2.70;99.90
73360;DHT22;63092;43.582;19.528;2023-01-16T08:13:21;2.80;99.90
73360;DHT22;63092;43.582;19.528;2023-01-16T08:15:47;2.70;99.90
73360;DHT22;63092;43.582;19.528;2023-01-16T08:18:13;2.90;99.90
73360;DHT22;63092;43.582;19.528;2023-01-16T08:20:38;3.00;99.90
73360;DHT22;63092;43.582;19.528;2023-01-16T08:23:06;3.00;99.90
73360;DHT22;63092;43.582;19.528;2023-01-16T08:25:32;3.10;99.90
73360;DHT22;63092;43.582;19.528;2023-01-16T08:27:57;3.10;99.90
73360;DHT22;63092;43.582;19.528;2023-01-16T08:30:23;3.10;99.90
73360;DHT22;63092;43.582;19.528;2023-01-16T08:32:49;3.10;99.90
73360;DHT22;63092;43.582;19.528;2023-01-16T08:35:14;3.30;99.90
73360;DHT22;63092;43.582;19.528;2023-01-16T08:37:47;3.30;99.90
73360;DHT22;63092;43.582;19.528;2023-01-16T08:40:13;3.30;99.90
73360;DHT22;63092;43.582;19.528;2023-01-16T08:42:39;3.30;99.90
73360;DHT22;63092;43.582;19.528;2023-01-16T08:45:23;3.20;99.90
73360;DHT22;63092;43.582;19.528;2023-01-16T08:48:09;3.20;99.90
73360;DHT22;63092;43.582;19.528;2023-01-16T08:50:54;3.10;99.90
73360;DHT22;63092;43.582;19.528;2023-01-16T08:53:39;3.10;99.90
73360;DHT22;63092;43.582;19.528;2023-01-16T08:56:06;3.20;99.90
73360;DHT22;63092;43.582;19.528;2023-01-16T08:58:31;3.20;99.90
73360;DHT22;63092;43.582;19.528;2023-01-16T09:00:57;3.20;99.90
73360;DHT22;63092;43.582;19.528;2023-01-16T09:03:23;3.40;99.90
73360;DHT22;63092;43.582;19.528;2023-01-16T09:05:48;3.50;99.90
73360;DHT22;63092;43.582;19.528;2023-01-16T09:08:14;3.50;99.90
73360;DHT22;63092;43.582;19.528;2023-01-16T09:10:40;3.50;99.90
73360;DHT22;63092;43.582;19.528;2023-01-16T09:13:25;3.60;99.90
73360;DHT22;63092;43.582;19.528;2023-01-16T09:16:09;3.60;99.90
73360;DHT22;63092;43.582;19.528;2023-01-16T09:18:35;3.50;99.90
73360;DHT22;63092;43.582;19.528;2023-01-16T09:21:01;3.50;99.90
73360;DHT22;63092;43.582;19.528;2023-01-16T09:23:27;3.60;99.90
73360;DHT22;63092;43.582;19.528;2023-01-16T09:25:52;3.70;99.90
73360;DHT22;63092;43.582;19.528;2023-01-16T09:28:18;3.70;99.90
73360;DHT22;63092;43.582;19.528;2023-01-16T09:30:44;3.80;99.90
73360;DHT22;63092;43.582;19.528;2023-01-16T09:33:09;3.90;99.90
73360;DHT22;63092;43.582;19.528;2023-01-16T09:35:35;4.00;99.90
73360;DHT22;63092;43.582;19.528;2023-01-16T09:38:00;4.10;99.90
73360;DHT22;63092;43.582;19.528;2023-01-16T09:40:26;4.10;99.90
73360;DHT22;63092;43.582;19.528;2023-01-16T09:45:45;4.40;99.90
73360;DHT22;63092;43.582;19.528;2023-01-16T09:48:38;4.50;99.90
73360;DHT22;63092;43.582;19.528;2023-01-16T09:51:10;4.70;99.90
73360;DHT22;63092;43.582;19.528;2023-01-16T09:56:39;4.60;99.90
73360;DHT22;63092;43.582;19.528;2023-01-16T09:59:36;4.60;99.90
73360;DHT22;63092;43.582;19.528;2023-01-16T10:05:06;4.80;99.90
73360;DHT22;63092;43.582;19.528;2023-01-16T10:07:56;4.90;99.90
73360;DHT22;63092;43.582;19.528;2023-01-16T10:10:43;4.50;99.90
73360;DHT22;63092;43.582;19.528;2023-01-16T10:19:12;4.90;99.90
73360;DHT22;63092;43.582;19.528;2023-01-16T10:24:45;4.90;99.90
73360;DHT22;63092;43.582;19.528;2023-01-16T10:29:53;4.90;99.90
73360;DHT22;63092;43.582;19.528;2023-01-16T10:32:28;5.10;99.90
73360;DHT22;63092;43.582;19.528;2023-01-16T10:35:35;5.20;99.90
73360;DHT22;63092;43.582;19.528;2023-01-16T10:40:42;5.20;99.90
73360;DHT22;63092;43.582;19.528;2023-01-16T10:43:16;5.10;99.90
73360;DHT22;63092;43.582;19.528;2023-01-16T10:46:13;5.10;99.90
73360;DHT22;63092;43.582;19.528;2023-01-16T10:48:58;5.00;99.90
73360;DHT22;63092;43.582;19.528;2023-01-16T10:51:42;5.10;99.90
73360;DHT22;63092;43.582;19.528;2023-01-16T10:54:08;5.20;99.90
73360;DHT22;63092;43.582;19.528;2023-01-16T10:56:34;5.40;99.90
73360;DHT22;63092;43.582;19.528;2023-01-16T10:59:02;5.60;99.90
73360;DHT22;63092;43.582;19.528;2023-01-16T11:01:29;5.70;99.90
73360;DHT22;63092;43.582;19.528;2023-01-16T11:03:58;5.80;99.90
73360;DHT22;63092;43.582;19.528;2023-01-16T11:06:29;6.20;99.90
73360;DHT22;63092;43.582;19.528;2023-01-16T11:09:06;6.50;99.90
73360;DHT22;63092;43.582;19.528;2023-01-16T11:11:40;7.70;99.90
73360;DHT22;63092;43.582;19.528;2023-01-16T11:14:26;8.40;97.40
73360;DHT22;63092;43.582;19.528;2023-01-16T11:20:27;9.60;94.00
73360;DHT22;63092;43.582;19.528;2023-01-16T11:22:59;10.00;90.60
73360;DHT22;63092;43.582;19.528;2023-01-16T11:25:28;10.30;88.20
73360;DHT22;63092;43.582;19.528;2023-01-16T11:27:57;10.60;85.60
73360;DHT22;63092;43.582;19.528;2023-01-16T11:30:29;10.90;85.40
73360;DHT22;63092;43.582;19.528;2023-01-16T11:32:57;11.00;85.60
73360;DHT22;63092;43.582;19.528;2023-01-16T11:35:29;11.10;82.50
73360;DHT22;63092;43.582;19.528;2023-01-16T11:37:57;11.20;80.50
73360;DHT22;63092;43.582;19.528;2023-01-16T11:40:24;11.20;80.80
73360;DHT22;63092;43.582;19.528;2023-01-16T11:42:56;11.30;79.20
73360;DHT22;63092;43.582;19.528;2023-01-16T11:45:46;11.50;79.40
73360;DHT22;63092;43.582;19.528;2023-01-16T11:48:39;11.50;79.00
73360;DHT22;63092;43.582;19.528;2023-01-16T11:51:08;11.40;78.90
73360;DHT22;63092;43.582;19.528;2023-01-16T11:53:35;11.60;78.70
73360;DHT22;63092;43.582;19.528;2023-01-16T12:01:45;11.90;78.10
73360;DHT22;63092;43.582;19.528;2023-01-16T12:04:37;12.10;76.50
73360;DHT22;63092;43.582;19.528;2023-01-16T12:07:16;12.30;75.50
73360;DHT22;63092;43.582;19.528;2023-01-16T12:09:43;12.30;75.60
73360;DHT22;63092;43.582;19.528;2023-01-16T12:15:25;12.50;75.50
73360;DHT22;63092;43.582;19.528;2023-01-16T12:18:03;12.50;74.50
73360;DHT22;63092;43.582;19.528;2023-01-16T12:26:11;12.60;74.10
73360;DHT22;63092;43.582;19.528;2023-01-16T12:37:39;13.10;72.20
73360;DHT22;63092;43.582;19.528;2023-01-16T12:45:59;13.20;71.00
73360;DHT22;63092;43.582;19.528;2023-01-16T12:58:59;12.60;72.20
73360;DHT22;63092;43.582;19.528;2023-01-16T13:01:41;12.50;72.80
73360;DHT22;63092;43.582;19.528;2023-01-16T13:04:13;12.40;73.20
73360;DHT22;63092;43.582;19.528;2023-01-16T13:07:07;12.40;73.80
73360;DHT22;63092;43.582;19.528;2023-01-16T13:09:45;12.30;74.40
73360;DHT22;63092;43.582;19.528;2023-01-16T13:12:25;12.30;76.00
73360;DHT22;63092;43.582;19.528;2023-01-16T13:15:25;12.20;75.50
73360;DHT22;63092;43.582;19.528;2023-01-16T13:18:03;12.20;75.00
73360;DHT22;63092;43.582;19.528;2023-01-16T13:20:31;12.20;74.70
73360;DHT22;63092;43.582;19.528;2023-01-16T13:23:02;12.30;74.60
73360;DHT22;63092;43.582;19.528;2023-01-16T13:25:44;12.30;73.60
73360;DHT22;63092;43.582;19.528;2023-01-16T13:28:39;12.40;73.40
73360;DHT22;63092;43.582;19.528;2023-01-16T13:33:56;12.40;73.10
73360;DHT22;63092;43.582;19.528;2023-01-16T13:37:01;12.40;72.50
73360;DHT22;63092;43.582;19.528;2023-01-16T13:42:17;12.50;72.80
73360;DHT22;63092;43.582;19.528;2023-01-16T13:44:53;12.50;71.50
73360;DHT22;63092;43.582;19.528;2023-01-16T13:47:39;12.60;72.10
73360;DHT22;63092;43.582;19.528;2023-01-16T13:50:24;12.60;72.10
73360;DHT22;63092;43.582;19.528;2023-01-16T13:53:00;12.50;72.50
73360;DHT22;63092;43.582;19.528;2023-01-16T13:55:30;12.50;72.70
73360;DHT22;63092;43.582;19.528;2023-01-16T14:00:38;12.40;73.10
73360;DHT22;63092;43.582;19.528;2023-01-16T14:03:25;12.40;73.00
73360;DHT22;63092;43.582;19.528;2023-01-16T14:09:11;12.30;73.60
73360;DHT22;63092;43.582;19.528;2023-01-16T14:23:28;12.00;76.50
73360;DHT22;63092;43.582;19.528;2023-01-16T14:28:54;11.90;77.00
73360;DHT22;63092;43.582;19.528;2023-01-16T14:31:26;11.90;76.80
73360;DHT22;63092;43.582;19.528;2023-01-16T14:33:55;11.90;77.00
73360;DHT22;63092;43.582;19.528;2023-01-16T14:36:24;11.90;76.60
73360;DHT22;63092;43.582;19.528;2023-01-16T14:38:50;11.90;76.30
73360;DHT22;63092;43.582;19.528;2023-01-16T14:41:28;11.80;76.80
73360;DHT22;63092;43.582;19.528;2023-01-16T14:44:14;11.90;75.40
73360;DHT22;63092;43.582;19.528;2023-01-16T14:47:11;11.80;76.30
73360;DHT22;63092;43.582;19.528;2023-01-16T14:50:13;11.80;76.20
73360;DHT22;63092;43.582;19.528;2023-01-16T14:58:37;11.60;77.30
73360;DHT22;63092;43.582;19.528;2023-01-16T15:01:07;11.60;77.10
73360;DHT22;63092;43.582;19.528;2023-01-16T15:03:59;11.50;77.40
73360;DHT22;63092;43.582;19.528;2023-01-16T15:06:33;11.50;77.80
73360;DHT22;63092;43.582;19.528;2023-01-16T15:09:00;11.40;76.90
73360;DHT22;63092;43.582;19.528;2023-01-16T15:11:30;11.40;77.90
73360;DHT22;63092;43.582;19.528;2023-01-16T15:14:16;11.40;78.00
73360;DHT22;63092;43.582;19.528;2023-01-16T15:22:45;11.30;77.50
73360;DHT22;63092;43.582;19.528;2023-01-16T15:31:13;11.20;78.50
73360;DHT22;63092;43.582;19.528;2023-01-16T15:33:41;11.20;79.20
73360;DHT22;63092;43.582;19.528;2023-01-16T15:36:35;11.20;79.90
73360;DHT22;63092;43.582;19.528;2023-01-16T15:39:21;11.20;79.60
73360;DHT22;63092;43.582;19.528;2023-01-16T15:42:38;11.20;80.30
73360;DHT22;63092;43.582;19.528;2023-01-16T15:51:10;11.20;80.60
73360;DHT22;63092;43.582;19.528;2023-01-16T15:53:42;11.20;81.60
73360;DHT22;63092;43.582;19.528;2023-01-16T15:56:35;11.10;81.20
73360;DHT22;63092;43.582;19.528;2023-01-16T15:59:04;11.10;81.70
73360;DHT22;63092;43.582;19.528;2023-01-16T16:01:44;11.20;81.30
73360;DHT22;63092;43.582;19.528;2023-01-16T16:04:10;11.10;81.50
73360;DHT22;63092;43.582;19.528;2023-01-16T16:06:36;11.10;82.20
73360;DHT22;63092;43.582;19.528;2023-01-16T16:09:04;11.10;81.90
73360;DHT22;63092;43.582;19.528;2023-01-16T16:11:32;11.10;82.10
73360;DHT22;63092;43.582;19.528;2023-01-16T16:14:23;11.10;82.50
73360;DHT22;63092;43.582;19.528;2023-01-16T16:17:34;11.00;82.50
73360;DHT22;63092;43.582;19.528;2023-01-16T16:20:39;11.10;82.30
73360;DHT22;63092;43.582;19.528;2023-01-16T16:25:50;11.00;83.90
73360;DHT22;63092;43.582;19.528;2023-01-16T16:31:22;11.00;84.40
73360;DHT22;63092;43.582;19.528;2023-01-16T16:34:06;11.00;84.70
73360;DHT22;63092;43.582;19.528;2023-01-16T16:36:40;11.00;84.10
73360;DHT22;63092;43.582;19.528;2023-01-16T16:41:51;10.90;84.50
73360;DHT22;63092;43.582;19.528;2023-01-16T16:44:45;11.00;84.70
73360;DHT22;63092;43.582;19.528;2023-01-16T16:47:25;10.90;85.00
73360;DHT22;63092;43.582;19.528;2023-01-16T16:49:51;10.90;85.40
73360;DHT22;63092;43.582;19.528;2023-01-16T16:52:29;10.80;86.00
73360;DHT22;63092;43.582;19.528;2023-01-16T16:54:57;10.80;85.50
73360;DHT22;63092;43.582;19.528;2023-01-16T16:57:24;10.90;85.90
73360;DHT22;63092;43.582;19.528;2023-01-16T16:59:52;10.90;85.40
73360;DHT22;63092;43.582;19.528;2023-01-16T17:02:18;10.80;86.10
73360;DHT22;63092;43.582;19.528;2023-01-16T17:04:45;10.80;85.70
73360;DHT22;63092;43.582;19.528;2023-01-16T17:07:11;10.80;86.10
73360;DHT22;63092;43.582;19.528;2023-01-16T17:09:36;10.80;85.70
73360;DHT22;63092;43.582;19.528;2023-01-16T17:12:16;10.80;86.80
73360;DHT22;63092;43.582;19.528;2023-01-16T17:14:42;10.80;86.50
73360;DHT22;63092;43.582;19.528;2023-01-16T17:17:12;10.80;87.70
73360;DHT22;63092;43.582;19.528;2023-01-16T17:19:38;10.80;87.50
73360;DHT22;63092;43.582;19.528;2023-01-16T17:22:04;10.80;88.40
73360;DHT22;63092;43.582;19.528;2023-01-16T17:24:30;10.80;89.10
73360;DHT22;63092;43.582;19.528;2023-01-16T17:26:56;10.80;89.30
73360;DHT22;63092;43.582;19.528;2023-01-16T17:29:21;10.80;89.80
73360;DHT22;63092;43.582;19.528;2023-01-16T17:31:47;10.80;90.20
73360;DHT22;63092;43.582;19.528;2023-01-16T17:34:15;10.80;90.20
73360;DHT22;63092;43.582;19.528;2023-01-16T17:36:41;10.70;90.10
73360;DHT22;63092;43.582;19.528;2023-01-16T17:39:07;10.70;90.50
73360;DHT22;63092;43.582;19.528;2023-01-16T17:41:35;10.70;90.50
73360;DHT22;63092;43.582;19.528;2023-01-16T17:44:15;10.70;90.50
73360;DHT22;63092;43.582;19.528;2023-01-16T17:47:00;10.60;91.00
73360;DHT22;63092;43.582;19.528;2023-01-16T17:49:25;10.60;91.20
73360;DHT22;63092;43.582;19.528;2023-01-16T17:51:51;10.60;91.20
73360;DHT22;63092;43.582;19.528;2023-01-16T17:54:17;10.50;91.70
73360;DHT22;63092;43.582;19.528;2023-01-16T17:57:02;10.40;91.90
73360;DHT22;63092;43.582;19.528;2023-01-16T17:59:28;10.40;92.00
73360;DHT22;63092;43.582;19.528;2023-01-16T18:01:55;10.30;92.00
73360;DHT22;63092;43.582;19.528;2023-01-16T18:04:21;10.40;92.10
73360;DHT22;63092;43.582;19.528;2023-01-16T18:06:46;10.30;92.10
73360;DHT22;63092;43.582;19.528;2023-01-16T18:09:12;10.40;92.20
73360;DHT22;63092;43.582;19.528;2023-01-16T18:11:41;10.50;92.30
73360;DHT22;63092;43.582;19.528;2023-01-16T18:14:26;10.40;92.60
73360;DHT22;63092;43.582;19.528;2023-01-16T18:17:11;10.30;92.70
73360;DHT22;63092;43.582;19.528;2023-01-16T18:19:47;10.30;93.00
73360;DHT22;63092;43.582;19.528;2023-01-16T18:22:13;10.30;93.00
73360;DHT22;63092;43.582;19.528;2023-01-16T18:24:40;10.30;93.30
73360;DHT22;63092;43.582;19.528;2023-01-16T18:27:11;10.30;93.80
73360;DHT22;63092;43.582;19.528;2023-01-16T18:29:38;10.30;93.90
73360;DHT22;63092;43.582;19.528;2023-01-16T18:32:04;10.30;93.90
73360;DHT22;63092;43.582;19.528;2023-01-16T18:34:53;10.30;94.20